createdAt,value
2018-05-26T00:00:23.124Z,102024.78
2018-05-26T00:02:51.765Z,102029.56
2018-05-26T00:05:20.085Z,102029.56
2018-05-26T00:07:48.423Z,102021.66
2018-05-26T00:10:16.810Z,102015.20
2018-05-26T00:12:45.122Z,102021.18
2018-05-26T00:15:13.475Z,102018.91
2018-05-26T00:17:41.832Z,102022.45
2018-05-26T00:20:10.151Z,102025.06
2018-05-26T00:22:38.454Z,102028.36
2018-05-26T00:25:07.692Z,102030.67
2018-05-26T00:27:36.009Z,102019.94
2018-05-26T00:30:04.311Z,102026.09
2018-05-26T00:32:33.474Z,102032.25
2018-05-26T00:35:01.786Z,102026.25
2018-05-26T00:37:33.911Z,102027.69
2018-05-26T00:40:02.985Z,102025.70
2018-05-26T00:42:31.310Z,102029.36
2018-05-26T00:44:59.836Z,102027.99
2018-05-26T00:47:28.151Z,102031.54
2018-05-26T00:49:56.457Z,102030.24
2018-05-26T00:52:24.805Z,102029.88
2018-05-26T00:54:53.118Z,102031.16
2018-05-26T00:57:21.467Z,102027.27
2018-05-26T00:59:49.805Z,102023.89
2018-05-26T01:02:18.116Z,102023.94
2018-05-26T01:04:46.418Z,102028.24
2018-05-26T01:07:15.016Z,102025.03
2018-05-26T01:09:44.107Z,102028.18
2018-05-26T01:12:13.246Z,102032.31
2018-05-26T01:14:41.595Z,102033.05
2018-05-26T01:17:10.707Z,102031.42
2018-05-26T01:19:39.016Z,102034.52
2018-05-26T01:22:07.472Z,102035.50
2018-05-26T01:24:35.795Z,102033.30
2018-05-26T01:27:04.126Z,102031.27
2018-05-26T01:29:33.300Z,102028.94
2018-05-26T01:32:02.402Z,102027.64
2018-05-26T01:34:31.493Z,102019.23
2018-05-26T01:36:59.838Z,102025.98
2018-05-26T01:39:28.183Z,102018.82
2018-05-26T01:41:56.480Z,102021.75
2018-05-26T01:44:24.846Z,102025.50
2018-05-26T01:46:53.176Z,102013.70
2018-05-26T01:49:21.632Z,102015.53
2018-05-26T01:51:50.068Z,102021.33
2018-05-26T01:54:18.406Z,102018.08
2018-05-26T01:56:46.722Z,102023.41
2018-05-26T01:59:15.832Z,102028.38
2018-05-26T02:01:44.141Z,102028.12
2018-05-26T02:04:12.470Z,102022.22
2018-05-26T02:06:41.583Z,102031.29
2018-05-26T02:09:09.903Z,102036.53
2018-05-26T02:11:38.234Z,102040.37
2018-05-26T02:14:06.945Z,102037.81
2018-05-26T02:16:35.267Z,102036.38
2018-05-26T02:19:03.613Z,102039.34
2018-05-26T02:21:31.962Z,102038.19
2018-05-26T02:24:00.278Z,102041.78
2018-05-26T02:26:28.599Z,102034.19
2018-05-26T02:28:57.715Z,102030.94
2018-05-26T02:31:26.046Z,102037.00
2018-05-26T02:33:54.415Z,102035.41
2018-05-26T02:36:23.139Z,102034.36
2018-05-26T02:38:52.239Z,102041.04
2018-05-26T02:41:21.335Z,102039.94
2018-05-26T02:43:49.682Z,102034.81
2018-05-26T02:46:18.033Z,102037.20
2018-05-26T02:48:46.366Z,102042.17
2018-05-26T02:51:15.056Z,102034.14
2018-05-26T02:53:43.377Z,102036.19
2018-05-26T02:56:11.714Z,102039.78
2018-05-26T02:58:40.922Z,102039.70
2018-05-26T03:01:09.289Z,102042.09
2018-05-26T03:03:38.395Z,102036.36
2018-05-26T03:06:12.753Z,102028.58
2018-05-26T03:08:47.146Z,102029.86
2018-05-26T03:11:21.072Z,102038.74
2018-05-26T03:13:54.835Z,102038.50
2018-05-26T03:16:28.664Z,102050.46
2018-05-26T03:18:56.979Z,102043.63
2018-05-26T03:21:25.295Z,102040.20
2018-05-26T03:23:53.678Z,102039.69
2018-05-26T03:26:21.991Z,102040.28
2018-05-26T03:28:50.327Z,102040.45
2018-05-26T03:31:18.697Z,102042.16
2018-05-26T03:33:47.327Z,102042.50
2018-05-26T03:36:15.729Z,102036.34
2018-05-26T03:38:44.259Z,102043.96
2018-05-26T03:41:12.595Z,102039.42
2018-05-26T03:43:40.895Z,102043.36
2018-05-26T03:46:09.260Z,102036.94
2018-05-26T03:48:37.579Z,102042.58
2018-05-26T03:51:05.908Z,102037.89
2018-05-26T03:53:35.504Z,102049.87
2018-05-26T03:56:21.530Z,102048.84
2018-05-26T03:59:07.561Z,102045.84
2018-05-26T04:01:35.915Z,102046.19
2018-05-26T04:04:04.215Z,102045.23
2018-05-26T04:06:33.400Z,102051.72
2018-05-26T04:09:02.495Z,102047.70
2018-05-26T04:11:30.811Z,102059.06
2018-05-26T04:13:59.184Z,102063.36
2018-05-26T04:16:27.496Z,102053.45
2018-05-26T04:18:55.850Z,102056.27
2018-05-26T04:21:24.485Z,102061.82
2018-05-26T04:23:52.797Z,102061.48
2018-05-26T04:26:21.151Z,102059.52
2018-05-26T04:28:49.483Z,102068.41
2018-05-26T04:31:18.571Z,102063.78
2018-05-26T04:33:46.899Z,102070.26
2018-05-26T04:36:15.219Z,102072.42
2018-05-26T04:38:43.547Z,102077.64
2018-05-26T04:41:11.867Z,102077.64
2018-05-26T04:43:41.023Z,102080.00
2018-05-26T04:46:09.318Z,102075.71
2018-05-26T04:48:37.655Z,102084.69
2018-05-26T04:51:06.004Z,102082.72
2018-05-26T04:53:36.435Z,102087.42
2018-05-26T04:56:04.791Z,102089.46
2018-05-26T04:58:33.961Z,102085.19
2018-05-26T05:01:02.351Z,102091.03
2018-05-26T05:03:30.659Z,102081.70
2018-05-26T05:05:59.959Z,102087.77
2018-05-26T05:08:28.334Z,102084.79
2018-05-26T05:10:56.685Z,102082.03
2018-05-26T05:13:25.061Z,102079.94
2018-05-26T05:15:53.407Z,102079.91
2018-05-26T05:18:21.741Z,102088.38
2018-05-26T05:20:50.890Z,102091.25
2018-05-26T05:23:19.212Z,102092.95
2018-05-26T05:25:47.571Z,102096.61
2018-05-26T05:28:16.027Z,102098.08
2018-05-26T05:30:44.351Z,102096.89
2018-05-26T05:33:12.703Z,102105.41
2018-05-26T05:35:41.065Z,102109.71
2018-05-26T05:38:09.377Z,102109.44
2018-05-26T05:40:37.708Z,102109.22
2018-05-26T05:43:06.073Z,102108.55
2018-05-26T05:45:34.420Z,102112.67
2018-05-26T05:48:02.730Z,102108.40
2018-05-26T05:50:31.240Z,102107.27
2018-05-26T05:52:59.584Z,102100.03
2018-05-26T05:55:27.936Z,102106.92
2018-05-26T05:57:56.317Z,102111.78
2018-05-26T06:00:24.665Z,102112.09
2018-05-26T06:02:53.009Z,102111.61
2018-05-26T06:05:21.378Z,102119.05
2018-05-26T06:07:49.739Z,102115.63
2018-05-26T06:10:18.850Z,102114.69
2018-05-26T06:12:48.432Z,102121.31
2018-05-26T06:15:16.777Z,102116.38
2018-05-26T06:17:45.103Z,102120.00
2018-05-26T06:20:14.256Z,102122.53
2018-05-26T06:22:42.552Z,102113.95
2018-05-26T06:25:10.895Z,102120.06
2018-05-26T06:27:39.221Z,102114.31
2018-05-26T06:30:09.225Z,102120.38
2018-05-26T06:32:37.552Z,102116.17
2018-05-26T06:35:06.297Z,102118.41
2018-05-26T06:37:34.642Z,102114.21
2018-05-26T06:40:03.043Z,102121.16
2018-05-26T06:42:31.385Z,102119.92
2018-05-26T06:44:59.732Z,102122.88
2018-05-26T06:47:28.091Z,102129.86
2018-05-26T06:50:12.810Z,102129.80
2018-05-26T06:52:41.130Z,102123.60
2018-05-26T06:55:09.454Z,102122.17
2018-05-26T06:57:37.839Z,102123.44
2018-05-26T07:00:06.930Z,102115.83
2018-05-26T07:02:35.254Z,102118.49
2018-05-26T07:05:03.585Z,102123.77
2018-05-26T07:07:32.679Z,102121.92
2018-05-26T07:10:01.835Z,102117.45
2018-05-26T07:12:30.666Z,102105.69
2018-05-26T07:14:58.973Z,102114.95
2018-05-26T07:17:28.308Z,102116.66
2018-05-26T07:19:56.655Z,102120.38
2018-05-26T07:22:25.031Z,102120.19
2018-05-26T07:24:53.380Z,102120.38
2018-05-26T07:27:22.482Z,102116.82
2018-05-26T07:29:51.570Z,102113.05
2018-05-26T07:32:20.671Z,102107.80
2018-05-26T07:34:50.083Z,102109.00
2018-05-26T07:37:19.200Z,102113.47
2018-05-26T07:39:47.546Z,102109.44
2018-05-26T07:42:16.695Z,102111.23
2018-05-26T07:44:45.018Z,102100.48
2018-05-26T07:47:13.357Z,102104.96
2018-05-26T07:49:41.791Z,102106.53
2018-05-26T07:52:10.246Z,102101.56
2018-05-26T07:54:38.688Z,102104.27
2018-05-26T07:57:08.268Z,102112.61
2018-05-26T07:59:36.602Z,102108.88
2018-05-26T08:02:04.944Z,102112.86
2018-05-26T08:04:33.330Z,102101.61
2018-05-26T08:07:01.668Z,102104.12
2018-05-26T08:09:30.771Z,102100.74
2018-05-26T08:11:59.889Z,102100.11
2018-05-26T08:14:28.202Z,102098.23
2018-05-26T08:16:56.561Z,102096.34
2018-05-26T08:19:25.244Z,102096.82
2018-05-26T08:21:53.547Z,102104.16
2018-05-26T08:24:21.866Z,102101.23
2018-05-26T08:26:50.985Z,102107.48
2018-05-26T08:29:19.320Z,102106.28
2018-05-26T08:31:47.673Z,102104.33
2018-05-26T08:34:16.016Z,102106.16
2018-05-26T08:36:44.611Z,102093.08
2018-05-26T08:39:13.009Z,102093.62
2018-05-26T08:41:41.465Z,102101.45
2018-05-26T08:44:09.810Z,102102.74
2018-05-26T08:46:38.931Z,102103.50
2018-05-26T08:49:07.295Z,102104.93
2018-05-26T08:51:36.430Z,102104.80
2018-05-26T08:54:04.754Z,102106.92
2018-05-26T08:56:33.119Z,102102.69
2018-05-26T08:59:02.265Z,102101.77
2018-05-26T09:01:30.670Z,102091.63
2018-05-26T09:03:59.546Z,102098.69
2018-05-26T09:06:27.948Z,102098.73
2018-05-26T09:08:57.030Z,102094.84
2018-05-26T09:11:25.420Z,102096.88
2018-05-26T09:13:53.767Z,102100.59
2018-05-26T09:16:22.111Z,102102.77
2018-05-26T09:18:51.264Z,102104.97
2018-05-26T09:21:19.621Z,102105.39
2018-05-26T09:23:47.980Z,102097.78
2018-05-26T09:26:16.363Z,102097.86
2018-05-26T09:28:45.433Z,102092.84
2018-05-26T09:31:13.780Z,102097.48
2018-05-26T09:33:42.151Z,102099.40
2018-05-26T09:36:10.572Z,102092.05
2018-05-26T09:38:38.891Z,102088.98
2018-05-26T09:41:08.011Z,102099.03
2018-05-26T09:43:36.370Z,102097.28
2018-05-26T09:46:05.464Z,102088.19
2018-05-26T09:48:33.921Z,102094.28
2018-05-26T09:51:02.230Z,102089.41
2018-05-26T09:53:30.580Z,102085.05
2018-05-26T09:55:59.747Z,102084.50
2018-05-26T09:58:28.067Z,102082.62
2018-05-26T10:00:57.173Z,102082.09
2018-05-26T10:03:26.341Z,102089.01
2018-05-26T10:05:54.877Z,102081.70
2018-05-26T10:08:23.225Z,102082.27
2018-05-26T10:10:53.044Z,102075.02
2018-05-26T10:13:21.452Z,102078.66
2018-05-26T10:15:49.807Z,102074.81
2018-05-26T10:18:18.974Z,102078.04
2018-05-26T10:20:47.333Z,102074.17
2018-05-26T10:23:15.733Z,102073.73
2018-05-26T10:25:44.098Z,102070.73
2018-05-26T10:28:12.423Z,102071.71
2018-05-26T10:30:41.548Z,102063.66
2018-05-26T10:33:10.205Z,102064.45
2018-05-26T10:35:38.655Z,102068.63
2018-05-26T10:38:06.994Z,102063.30
2018-05-26T10:40:35.400Z,102063.89
2018-05-26T10:43:03.746Z,102068.04
2018-05-26T10:45:39.884Z,102067.17
2018-05-26T10:48:08.240Z,102064.97
2018-05-26T10:50:37.340Z,102067.17
2018-05-26T10:53:11.492Z,102066.56
2018-05-26T11:01:29.293Z,102057.83
2018-05-26T11:03:58.462Z,102059.07
2018-05-26T11:06:26.801Z,102050.91
2018-05-26T11:08:55.151Z,102053.53
2018-05-26T11:11:23.582Z,102050.23
2018-05-26T11:13:52.656Z,102052.36
2018-05-26T11:16:21.115Z,102049.28
2018-05-26T11:18:50.155Z,102052.64
2018-05-26T11:21:18.475Z,102053.33
2018-05-26T11:23:46.784Z,102059.36
2018-05-26T11:26:15.148Z,102058.83
2018-05-26T11:28:44.238Z,102059.87
2018-05-26T11:31:12.575Z,102063.09
2018-05-26T11:33:41.223Z,102060.67
2018-05-26T11:36:10.343Z,102056.97
2018-05-26T11:38:39.451Z,102056.36
2018-05-26T11:41:07.868Z,102055.64
2018-05-26T11:43:36.301Z,102057.77
2018-05-26T11:46:04.714Z,102059.22
2018-05-26T11:48:33.056Z,102051.22
2018-05-26T11:51:02.158Z,102050.06
2018-05-26T11:53:30.507Z,102043.20
2018-05-26T11:55:58.940Z,102045.41
2018-05-26T11:58:27.309Z,102037.77
2018-05-26T12:00:55.651Z,102037.56
2018-05-26T12:03:24.743Z,102042.63
2018-05-26T12:05:53.091Z,102048.99
2018-05-26T12:08:21.416Z,102046.98
2018-05-26T12:10:50.600Z,102037.37
2018-05-26T12:13:18.924Z,102035.81
2018-05-26T12:15:47.265Z,102032.00
2018-05-26T12:18:16.582Z,102033.47
2018-05-26T12:20:44.897Z,102025.70
2018-05-26T12:23:13.212Z,102021.86
2018-05-26T12:25:41.604Z,102021.72
2018-05-26T12:28:10.721Z,102027.00
2018-05-26T12:30:39.040Z,102028.34
2018-05-26T12:33:07.515Z,102028.76
2018-05-26T12:35:36.139Z,102023.15
2018-05-26T12:38:04.501Z,102021.67
2018-05-26T12:40:32.960Z,102019.45
2018-05-26T12:43:01.270Z,102012.48
2018-05-26T12:45:29.597Z,102010.56
2018-05-26T12:47:58.408Z,102005.13
2018-05-26T12:50:26.781Z,102013.36
2018-05-26T12:52:55.099Z,102011.86
2018-05-26T12:55:24.241Z,102006.98
2018-05-26T12:57:52.734Z,102003.53
2018-05-26T13:00:21.096Z,102007.73
2018-05-26T13:02:49.797Z,102005.86
2018-05-26T13:05:18.134Z,102003.34
2018-05-26T13:07:47.416Z,101997.59
2018-05-26T13:10:15.903Z,102008.72
2018-05-26T13:12:44.278Z,102004.24
2018-05-26T13:15:12.679Z,102004.00
2018-05-26T13:17:41.869Z,102001.53
2018-05-26T13:20:10.381Z,101997.84
2018-05-26T13:22:38.792Z,101990.69
2018-05-26T13:25:07.881Z,101994.24
2018-05-26T13:27:36.307Z,101989.73
2018-05-26T13:30:04.663Z,101989.31
2018-05-26T13:32:33.030Z,101989.72
2018-05-26T13:35:01.425Z,101993.67
2018-05-26T13:37:29.918Z,101989.05
2018-05-26T13:39:58.307Z,101984.86
2018-05-26T13:42:27.491Z,101993.55
2018-05-26T13:44:55.971Z,101983.13
2018-05-26T13:47:24.772Z,101981.63
2018-05-26T13:49:53.152Z,101982.17
2018-05-26T13:52:21.542Z,101991.43
2018-05-26T13:54:50.774Z,101979.94
2018-05-26T13:57:19.305Z,101982.58
2018-05-26T13:59:48.570Z,101979.16
2018-05-26T14:02:16.990Z,101981.63
2018-05-26T14:04:45.358Z,101973.42
2018-05-26T14:07:13.764Z,101972.51
2018-05-26T14:09:42.224Z,101976.34
2018-05-26T14:12:10.601Z,101973.30
2018-05-26T14:14:38.921Z,101978.52
2018-05-26T14:17:07.333Z,101973.61
2018-05-26T14:19:36.456Z,101971.11
2018-05-26T14:22:04.795Z,101981.63
2018-05-26T14:24:33.132Z,101988.46
2018-05-26T14:27:01.461Z,101986.89
2018-05-26T14:29:29.783Z,101985.53
2018-05-26T14:31:59.232Z,101984.05
2018-05-26T14:34:27.557Z,101978.12
2018-05-26T14:36:55.889Z,101987.97
2018-05-26T14:39:24.318Z,101985.20
2018-05-26T14:41:53.436Z,101990.30
2018-05-26T14:44:22.520Z,101983.44
2018-05-26T14:46:51.664Z,101995.00
2018-05-26T14:49:19.996Z,101990.55
2018-05-26T14:51:48.342Z,101997.58
2018-05-26T14:54:16.866Z,101994.84
2018-05-26T14:56:45.946Z,101997.16
2018-05-26T14:59:14.270Z,101998.56
2018-05-26T15:01:42.591Z,101996.05
2018-05-26T15:04:10.957Z,102000.42
2018-05-26T15:06:39.315Z,102004.54
2018-05-26T15:09:07.724Z,101999.61
2018-05-26T15:11:36.858Z,101997.65
2018-05-26T15:14:05.189Z,101995.80
2018-05-26T15:16:33.749Z,101998.34
2018-05-26T15:19:02.075Z,101990.28
2018-05-26T15:21:30.431Z,101997.17
2018-05-26T15:23:58.784Z,101992.45
2018-05-26T15:26:27.142Z,102001.72
2018-05-26T15:28:55.465Z,101991.04
2018-05-26T15:31:23.844Z,102001.71
2018-05-26T15:33:52.164Z,101996.08
2018-05-26T15:36:21.271Z,101996.08
2018-05-26T15:38:49.702Z,101999.43
2018-05-26T15:41:18.045Z,101999.13
2018-05-26T15:43:46.353Z,101997.95
2018-05-26T15:46:14.741Z,101994.65
2018-05-26T15:48:43.080Z,101999.23
2018-05-26T15:51:11.388Z,101995.45
2018-05-26T15:53:39.711Z,102002.76
2018-05-26T15:56:08.087Z,101999.66
2018-05-26T15:58:37.211Z,101998.68
2018-05-26T16:01:05.974Z,102000.86
2018-05-26T16:03:34.326Z,101997.92
2018-05-26T16:06:02.661Z,101994.07
2018-05-26T16:08:31.036Z,101997.97
2018-05-26T16:10:59.523Z,101998.06
2018-05-26T16:13:27.870Z,101997.66
2018-05-26T16:15:56.969Z,101999.87
2018-05-26T16:18:26.071Z,101994.80
2018-05-26T16:20:54.397Z,102000.27
2018-05-26T16:23:22.849Z,102006.44
2018-05-26T16:25:51.238Z,102001.86
2018-05-26T16:28:19.530Z,101998.38
2018-05-26T16:30:48.642Z,102003.28
2018-05-26T16:33:16.948Z,102002.29
2018-05-26T16:35:46.040Z,102001.38
2018-05-26T16:38:15.180Z,102004.75
2018-05-26T16:40:43.516Z,102009.37
2018-05-26T16:43:11.926Z,102006.92
2018-05-26T16:45:40.422Z,102014.99
2018-05-26T16:48:08.759Z,102013.01
2018-05-26T16:50:37.140Z,102007.52
2018-05-26T16:53:06.299Z,102012.58
2018-05-26T16:55:34.629Z,102012.80
2018-05-26T16:58:03.003Z,102011.31
2018-05-26T17:00:31.579Z,102014.41
2018-05-26T17:02:59.954Z,102017.89
2018-05-26T17:05:29.116Z,102017.86
2018-05-26T17:07:57.753Z,102021.08
2018-05-26T17:10:26.074Z,102014.44
2018-05-26T17:12:54.382Z,102010.35
2018-05-26T17:15:22.720Z,102012.70
2018-05-26T17:17:51.044Z,102005.98
2018-05-26T17:20:19.382Z,102006.95
2018-05-26T17:22:47.719Z,102012.05
2018-05-26T17:25:16.837Z,102006.91
2018-05-26T17:27:45.164Z,102004.31
2018-05-26T17:30:13.929Z,102003.36
2018-05-26T17:32:42.236Z,102014.81
2018-05-26T17:35:10.686Z,102000.40
2018-05-26T17:37:39.053Z,102011.08
2018-05-26T17:40:07.366Z,102004.42
2018-05-26T17:42:35.710Z,102008.77
2018-05-26T17:45:04.045Z,102004.42
2018-05-26T17:47:32.384Z,102009.08
2018-05-26T17:50:00.738Z,102007.40
2018-05-26T17:52:29.184Z,102008.01
2018-05-26T17:54:58.291Z,102010.60
2018-05-26T17:57:26.627Z,102016.34
2018-05-26T17:59:55.016Z,102011.45
2018-05-26T18:02:23.388Z,102017.08
2018-05-26T18:04:51.718Z,102011.20
2018-05-26T18:07:20.077Z,102006.80
2018-05-26T18:09:49.196Z,102012.72
2018-05-26T18:12:17.525Z,102012.34
2018-05-26T18:14:46.152Z,102014.47
2018-05-26T18:17:14.524Z,102017.85
2018-05-26T18:19:42.837Z,102020.55
2018-05-26T18:22:11.303Z,102018.65
2018-05-26T18:24:39.620Z,102019.87
2018-05-26T18:27:07.949Z,102022.98
2018-05-26T18:29:37.040Z,102018.73
2018-05-26T18:32:06.147Z,102025.45
2018-05-26T18:34:34.461Z,102024.74
2018-05-26T18:37:03.181Z,102028.20
2018-05-26T18:39:31.524Z,102033.73
2018-05-26T18:41:59.893Z,102041.62
2018-05-26T18:44:28.266Z,102042.77
2018-05-26T18:46:56.835Z,102044.89
2018-05-26T18:49:25.306Z,102042.06
2018-05-26T18:51:53.661Z,102044.89
2018-05-26T18:54:21.983Z,102046.34
2018-05-26T18:56:50.296Z,102051.78
2018-05-26T18:59:18.748Z,102050.27
2018-05-26T19:01:47.095Z,102051.51
2018-05-26T19:04:15.680Z,102056.17
2018-05-26T19:06:44.010Z,102052.84
2018-05-26T19:09:12.346Z,102052.16
2018-05-26T19:11:40.682Z,102058.35
2018-05-26T19:14:09.054Z,102060.91
2018-05-26T19:16:37.378Z,102067.38
2018-05-26T19:19:05.726Z,102065.54
2018-05-26T19:21:34.316Z,102072.13
2018-05-26T19:24:03.421Z,102070.49
2018-05-26T19:26:31.792Z,102074.30
2018-05-26T19:29:00.220Z,102078.00
2018-05-26T19:31:28.583Z,102077.48
2018-05-26T19:33:56.945Z,102082.90
2018-05-26T19:36:25.376Z,102082.14
2018-05-26T19:38:53.730Z,102081.28
2018-05-26T19:41:22.080Z,102089.41
2018-05-26T19:43:50.679Z,102085.80
2018-05-26T19:46:18.994Z,102079.30
2018-05-26T19:48:47.330Z,102081.34
2018-05-26T19:51:15.868Z,102088.47
2018-05-26T19:53:44.223Z,102089.16
2018-05-26T19:56:13.152Z,102084.21
2018-05-26T19:58:41.532Z,102088.05
2018-05-26T20:01:10.646Z,102083.66
2018-05-26T20:03:39.743Z,102082.98
2018-05-26T20:06:08.939Z,102082.28
2018-05-26T20:08:38.205Z,102087.06
2018-05-26T20:11:06.564Z,102087.30
2018-05-26T20:13:34.951Z,102084.00
2018-05-26T20:16:03.324Z,102086.36
2018-05-26T20:18:31.660Z,102095.38
2018-05-26T20:21:00.792Z,102090.45
2018-05-26T20:23:29.141Z,102091.14
2018-05-26T20:25:58.285Z,102087.22
2018-05-26T20:28:26.816Z,102088.19
2018-05-26T20:30:55.940Z,102083.09
2018-05-26T20:33:24.315Z,102090.41
2018-05-26T20:35:52.779Z,102086.05
2018-05-26T20:38:21.233Z,102087.65
2018-05-26T20:40:49.580Z,102086.05
2018-05-26T20:43:18.121Z,102092.00
2018-05-26T20:45:47.275Z,102091.27
2018-05-26T20:48:15.719Z,102093.17
2018-05-26T20:50:44.185Z,102097.64
2018-05-26T20:53:12.611Z,102089.33
2018-05-26T20:55:40.946Z,102093.05
2018-05-26T20:58:09.452Z,102099.22
2018-05-26T21:00:37.775Z,102106.45
2018-05-26T21:03:07.525Z,102102.70
2018-05-26T21:05:35.967Z,102104.01
2018-05-26T21:08:04.389Z,102094.08
2018-05-26T21:10:32.806Z,102097.91
2018-05-26T21:13:02.110Z,102093.66
2018-05-26T21:15:30.474Z,102086.66
2018-05-26T21:17:58.844Z,102082.84
2018-05-26T21:20:27.210Z,102092.28
2018-05-26T21:22:55.581Z,102097.11
2018-05-26T21:25:23.901Z,102094.92
2018-05-26T21:27:52.314Z,102089.45
2018-05-26T21:30:20.631Z,102086.95
2018-05-26T21:32:48.974Z,102085.79
2018-05-26T21:35:18.155Z,102090.78
2018-05-26T21:37:46.480Z,102092.77
2018-05-26T21:40:14.973Z,102099.24
2018-05-26T21:42:43.350Z,102100.48
2018-05-26T21:45:11.699Z,102110.45
2018-05-26T21:47:40.043Z,102111.47
2018-05-26T21:50:08.424Z,102105.98
2018-05-26T21:52:36.835Z,102101.30
2018-05-26T21:55:05.942Z,102102.16
2018-05-26T21:57:34.423Z,102091.67
2018-05-26T22:00:02.796Z,102094.61
2018-05-26T22:02:31.159Z,102095.30
2018-05-26T22:05:00.296Z,102100.33
2018-05-26T22:07:28.596Z,102100.55
2018-05-26T22:09:56.903Z,102100.44
2018-05-26T22:12:25.249Z,102103.94
2018-05-26T22:14:53.580Z,102098.37
2018-05-26T22:17:22.701Z,102103.48
2018-05-26T22:19:51.482Z,102100.69
2018-05-26T22:22:19.824Z,102104.06
2018-05-26T22:24:48.169Z,102112.26
2018-05-26T22:27:16.539Z,102110.25
2018-05-26T22:29:44.883Z,102126.16
2018-05-26T22:32:14.056Z,102123.64
2018-05-26T22:34:42.404Z,102124.84
2018-05-26T22:37:10.750Z,102122.70
2018-05-26T22:39:39.077Z,102122.78
2018-05-26T22:42:07.467Z,102114.77
2018-05-26T22:44:35.783Z,102110.29
2018-05-26T22:47:04.890Z,102103.63
2018-05-26T22:49:33.255Z,102102.92
2018-05-26T22:52:01.583Z,102100.66
2018-05-26T22:54:29.907Z,102098.94
2018-05-26T22:56:59.190Z,102099.56
2018-05-26T22:59:28.303Z,102100.48
2018-05-26T23:01:57.808Z,102095.37
2018-05-26T23:04:27.087Z,102101.23
2018-05-26T23:06:56.246Z,102101.33
2018-05-26T23:09:24.567Z,102102.24
2018-05-26T23:11:53.710Z,102108.86
2018-05-26T23:14:22.002Z,102111.07
2018-05-26T23:16:50.340Z,102108.98
2018-05-26T23:19:18.695Z,102107.50
2018-05-26T23:21:47.008Z,102104.83
2018-05-26T23:24:15.356Z,102098.17
2018-05-26T23:26:44.696Z,102106.62
2018-05-26T23:29:13.051Z,102105.23
2018-05-26T23:31:42.141Z,102106.89
2018-05-26T23:34:10.488Z,102104.72
2018-05-26T23:36:38.804Z,102104.42
2018-05-26T23:39:07.887Z,102108.52
2018-05-26T23:41:36.997Z,102108.64
2018-05-26T23:44:06.097Z,102100.25
2018-05-26T23:46:35.217Z,102101.46
2018-05-26T23:49:03.671Z,102100.70
2018-05-26T23:51:32.775Z,102090.52
2018-05-26T23:54:01.111Z,102095.45
2018-05-26T23:56:29.452Z,102091.80
2018-05-26T23:58:57.799Z,102106.73
